createdAt,value
2023-03-22T00:02:18.968Z,10.43
2023-03-22T00:04:47.084Z,11.80
2023-03-22T00:07:15.460Z,11.27
2023-03-22T00:09:42.829Z,9.75
2023-03-22T00:12:10.232Z,9.93
2023-03-22T00:14:37.728Z,9.43
2023-03-22T00:17:05.596Z,10.73
2023-03-22T00:19:34.152Z,9.27
2023-03-22T00:22:01.744Z,8.15
2023-03-22T00:24:29.157Z,14.73
2023-03-22T00:26:57.219Z,9.52
2023-03-22T00:29:24.757Z,10.75
2023-03-22T00:31:54.433Z,11.13
2023-03-22T00:34:22.703Z,9.00
2023-03-22T00:36:49.984Z,7.50
2023-03-22T00:39:17.304Z,13.23
2023-03-22T00:41:45.262Z,11.10
2023-03-22T00:44:12.496Z,8.18
2023-03-22T00:46:39.693Z,13.43
2023-03-22T00:49:07.113Z,12.77
2023-03-22T00:51:34.335Z,15.27
2023-03-22T00:54:01.679Z,12.10
2023-03-22T00:56:29.080Z,10.88
2023-03-22T00:58:56.374Z,9.32
2023-03-22T01:01:23.769Z,11.57
2023-03-22T01:03:51.205Z,10.02
2023-03-22T01:06:19.067Z,7.95
2023-03-22T01:08:46.217Z,7.93
2023-03-22T01:11:13.632Z,9.15
2023-03-22T01:13:43.956Z,6.18
2023-03-22T01:16:11.604Z,6.38
2023-03-22T01:18:39.763Z,10.65
2023-03-22T01:21:07.110Z,10.02
2023-03-22T01:23:34.659Z,8.93
2023-03-22T01:26:01.867Z,7.97
2023-03-22T01:28:29.582Z,8.80
2023-03-22T01:30:57.401Z,7.88
2023-03-22T01:33:24.569Z,11.40
2023-03-22T01:35:51.993Z,8.75
2023-03-22T01:38:20.513Z,7.97
2023-03-22T01:40:47.639Z,9.73
2023-03-22T01:43:15.759Z,7.60
2023-03-22T01:45:45.777Z,9.82
2023-03-22T01:48:16.270Z,10.73
2023-03-22T01:50:45.830Z,9.68
2023-03-22T01:53:14.256Z,7.38
2023-03-22T01:55:42.226Z,9.80
2023-03-22T01:58:09.498Z,7.32
2023-03-22T02:00:37.141Z,7.28
2023-03-22T02:03:05.088Z,9.65
2023-03-22T02:05:32.430Z,11.00
2023-03-22T02:07:59.703Z,10.43
2023-03-22T02:10:28.213Z,8.38
2023-03-22T02:13:13.915Z,10.07
2023-03-22T02:15:42.847Z,9.60
2023-03-22T02:18:16.544Z,8.15
2023-03-22T02:21:02.549Z,9.45
2023-03-22T02:23:29.838Z,11.02
2023-03-22T02:26:00.024Z,9.90
2023-03-22T02:28:27.270Z,15.27
2023-03-22T02:31:03.096Z,10.13
2023-03-22T02:33:53.239Z,9.93
2023-03-22T02:36:39.286Z,11.50
2023-03-22T02:39:14.845Z,11.77
2023-03-22T02:41:57.327Z,12.43
2023-03-22T02:44:27.519Z,11.70
2023-03-22T02:47:02.462Z,13.45
2023-03-22T02:49:41.340Z,15.23
2023-03-22T02:52:28.731Z,14.68
2023-03-22T02:54:56.000Z,12.52
2023-03-22T02:57:30.713Z,16.83
2023-03-22T02:59:59.291Z,12.27
2023-03-22T03:02:27.554Z,14.13
2023-03-22T03:04:55.053Z,17.33
2023-03-22T03:07:24.566Z,15.48
2023-03-22T03:09:52.299Z,19.35
2023-03-22T03:12:20.524Z,19.45
2023-03-22T03:14:47.948Z,16.88
2023-03-22T03:17:34.017Z,16.35
2023-03-22T03:20:19.838Z,23.23
2023-03-22T03:22:47.372Z,20.15
2023-03-22T03:25:19.221Z,17.75
2023-03-22T03:28:06.692Z,19.95
2023-03-22T03:30:39.202Z,17.30
2023-03-22T03:33:09.549Z,14.52
2023-03-22T03:35:42.120Z,21.83
2023-03-22T03:38:13.187Z,17.30
2023-03-22T03:40:46.495Z,20.25
2023-03-22T03:43:14.441Z,16.52
2023-03-22T03:45:41.778Z,18.83
2023-03-22T03:48:11.274Z,20.55
2023-03-22T03:50:39.045Z,19.80
2023-03-22T03:53:06.486Z,18.92
2023-03-22T03:55:34.269Z,18.27
2023-03-22T03:58:01.417Z,18.02
2023-03-22T04:00:28.670Z,19.45
2023-03-22T04:02:55.941Z,19.00
2023-03-22T04:05:23.138Z,16.77
2023-03-22T04:07:50.250Z,22.05
2023-03-22T04:10:17.447Z,17.92
2023-03-22T04:12:44.620Z,18.27
2023-03-22T04:15:12.600Z,17.35
2023-03-22T04:17:39.980Z,18.88
2023-03-22T04:20:08.884Z,17.00
2023-03-22T04:22:38.307Z,16.58
2023-03-22T04:25:06.783Z,19.48
2023-03-22T04:27:34.055Z,17.73
2023-03-22T04:30:01.302Z,18.80
2023-03-22T04:32:28.445Z,17.65
2023-03-22T04:34:55.741Z,16.48
2023-03-22T04:37:26.995Z,17.10
2023-03-22T04:39:54.772Z,17.73
2023-03-22T04:42:22.080Z,15.63
2023-03-22T04:44:49.322Z,14.15
2023-03-22T04:47:16.597Z,15.07
2023-03-22T04:49:43.722Z,18.52
2023-03-22T04:52:11.419Z,15.30
2023-03-22T04:54:38.609Z,15.80
2023-03-22T04:57:05.925Z,16.95
2023-03-22T04:59:33.074Z,14.77
2023-03-22T05:02:00.465Z,13.27
2023-03-22T05:04:28.090Z,17.38
2023-03-22T05:06:55.287Z,16.52
2023-03-22T05:09:23.614Z,17.63
2023-03-22T05:11:51.106Z,16.58
2023-03-22T05:14:18.574Z,15.57
2023-03-22T05:16:45.738Z,14.82
2023-03-22T05:19:15.686Z,17.00
2023-03-22T05:21:43.980Z,14.48
2023-03-22T05:24:12.082Z,16.85
2023-03-22T05:26:42.481Z,12.80
2023-03-22T05:29:13.277Z,16.65
2023-03-22T05:31:40.461Z,13.55
2023-03-22T05:34:08.226Z,16.38
2023-03-22T05:36:36.637Z,15.80
2023-03-22T05:39:05.466Z,13.23
2023-03-22T05:44:04.152Z,12.80
2023-03-22T05:46:31.338Z,12.80
2023-03-22T05:48:58.560Z,13.77
2023-03-22T05:51:25.680Z,14.38
2023-03-22T05:53:53.614Z,15.85
2023-03-22T05:56:24.508Z,14.13
2023-03-22T05:58:52.105Z,10.95
2023-03-22T06:01:21.345Z,13.00
2023-03-22T06:03:48.851Z,12.23
2023-03-22T06:06:16.114Z,11.20
2023-03-22T06:08:43.488Z,20.17
2023-03-22T06:11:11.808Z,12.98
2023-03-22T06:13:38.951Z,12.00
2023-03-22T06:16:06.586Z,11.95
2023-03-22T06:18:33.898Z,12.63
2023-03-22T06:21:01.558Z,13.40
2023-03-22T06:23:31.619Z,14.95
2023-03-22T06:25:58.767Z,13.70
2023-03-22T06:28:29.731Z,13.07
2023-03-22T06:30:57.017Z,11.15
2023-03-22T06:33:25.151Z,12.32
2023-03-22T06:35:52.309Z,15.98
2023-03-22T06:38:20.540Z,10.98
2023-03-22T06:40:49.100Z,13.27
2023-03-22T06:43:16.196Z,11.80
2023-03-22T06:45:43.445Z,10.30
2023-03-22T06:48:10.880Z,10.75
2023-03-22T06:50:40.258Z,12.10
2023-03-22T06:53:08.961Z,8.90
2023-03-22T06:55:36.224Z,11.98
2023-03-22T06:58:03.590Z,9.68
2023-03-22T07:00:32.084Z,9.57
2023-03-22T07:03:03.454Z,10.30
2023-03-22T07:05:30.817Z,8.77
2023-03-22T07:07:58.072Z,8.98
2023-03-22T07:10:25.182Z,10.63
2023-03-22T07:12:52.390Z,7.75
2023-03-22T07:15:24.312Z,7.30
2023-03-22T07:17:52.183Z,12.70
2023-03-22T07:20:20.283Z,12.20
2023-03-22T07:22:47.420Z,8.32
2023-03-22T07:25:14.533Z,13.00
2023-03-22T07:27:41.845Z,9.93
2023-03-22T07:30:09.892Z,7.93
2023-03-22T07:32:37.255Z,9.95
2023-03-22T07:35:05.907Z,6.78
2023-03-22T07:37:33.060Z,10.75
2023-03-22T07:40:00.287Z,9.20
2023-03-22T07:42:28.826Z,13.32
2023-03-22T07:44:56.168Z,7.63
2023-03-22T07:47:39.530Z,5.55
2023-03-22T07:50:08.118Z,8.00
2023-03-22T07:52:35.653Z,7.32
2023-03-22T07:55:02.847Z,9.15
2023-03-22T08:01:09.224Z,11.98
2023-03-22T08:03:37.595Z,12.68
2023-03-22T08:06:07.661Z,7.38
2023-03-22T08:11:57.673Z,12.07
2023-03-22T08:14:35.640Z,9.10
2023-03-22T08:17:03.030Z,10.23
2023-03-22T08:19:30.392Z,8.77
2023-03-22T08:21:57.685Z,8.18
2023-03-22T08:24:24.829Z,8.43
2023-03-22T08:26:51.996Z,9.20
2023-03-22T08:29:19.867Z,7.57
2023-03-22T08:31:48.126Z,11.05
2023-03-22T08:34:15.728Z,11.82
2023-03-22T08:36:42.936Z,7.53
2023-03-22T08:39:12.584Z,9.38
2023-03-22T08:41:40.265Z,11.77
2023-03-22T08:44:07.659Z,10.73
2023-03-22T08:46:34.927Z,11.20
2023-03-22T08:49:02.763Z,11.20
2023-03-22T08:51:31.307Z,9.98
2023-03-22T08:54:01.327Z,10.82
2023-03-22T08:56:28.971Z,8.02
2023-03-22T08:58:56.093Z,7.88
2023-03-22T09:01:23.463Z,9.15
2023-03-22T09:03:50.745Z,11.40
2023-03-22T09:06:17.897Z,8.02
2023-03-22T09:08:45.411Z,6.97
2023-03-22T09:11:13.056Z,9.75
2023-03-22T09:13:40.227Z,11.65
2023-03-22T09:16:09.009Z,11.00
2023-03-22T09:18:37.097Z,15.88
2023-03-22T09:21:05.881Z,10.30
2023-03-22T09:23:34.042Z,8.98
2023-03-22T09:26:01.695Z,11.25
2023-03-22T09:28:29.727Z,9.45
2023-03-22T09:31:01.410Z,11.30
2023-03-22T09:33:28.721Z,6.97
2023-03-22T09:35:57.123Z,16.30
2023-03-22T09:38:25.095Z,16.50
2023-03-22T09:41:01.714Z,10.18
2023-03-22T09:43:33.120Z,12.20
2023-03-22T09:46:01.037Z,10.30
2023-03-22T09:48:29.729Z,10.10
2023-03-22T09:50:57.136Z,7.47
2023-03-22T09:53:25.532Z,8.00
2023-03-22T09:56:23.166Z,12.05
2023-03-22T09:58:53.462Z,8.45
2023-03-22T10:01:37.472Z,9.95
2023-03-22T10:04:26.363Z,10.25
2023-03-22T10:07:16.781Z,11.00
2023-03-22T10:09:59.967Z,12.32
2023-03-22T10:12:27.248Z,9.05
2023-03-22T10:15:04.822Z,8.90
2023-03-22T10:17:32.409Z,7.00
2023-03-22T10:20:18.018Z,8.00
2023-03-22T10:22:46.689Z,11.15
2023-03-22T10:25:26.132Z,7.93
2023-03-22T10:28:00.764Z,12.63
2023-03-22T10:30:30.501Z,11.88
2023-03-22T10:33:02.762Z,13.07
2023-03-22T10:35:30.853Z,11.75
2023-03-22T10:38:02.915Z,12.75
2023-03-22T10:40:31.938Z,9.50
2023-03-22T10:43:09.641Z,7.65
2023-03-22T10:45:37.056Z,9.63
2023-03-22T10:48:17.293Z,9.85
2023-03-22T10:50:46.794Z,7.25
2023-03-22T10:53:25.154Z,10.80
2023-03-22T10:55:52.694Z,8.20
2023-03-22T10:58:20.986Z,9.38
2023-03-22T11:00:49.220Z,13.85
2023-03-22T11:03:35.910Z,10.27
2023-03-22T11:06:06.422Z,10.60
2023-03-22T11:08:40.618Z,8.68
2023-03-22T11:11:08.766Z,14.95
2023-03-22T11:13:36.555Z,10.50
2023-03-22T11:16:04.794Z,8.55
2023-03-22T11:18:33.063Z,9.63
2023-03-22T11:21:11.809Z,7.78
2023-03-22T11:23:41.908Z,14.80
2023-03-22T11:26:09.116Z,9.23
2023-03-22T11:28:38.822Z,5.97
2023-03-22T11:31:11.146Z,5.68
2023-03-22T11:33:39.184Z,9.93
2023-03-22T11:36:19.157Z,4.10
2023-03-22T11:38:47.460Z,6.95
2023-03-22T11:41:51.686Z,8.63
2023-03-22T11:44:26.100Z,7.30
2023-03-22T11:47:01.002Z,5.85
2023-03-22T11:51:56.798Z,5.43
2023-03-22T11:54:26.949Z,6.93
2023-03-22T11:56:55.701Z,8.98
2023-03-22T11:59:24.686Z,9.57
2023-03-22T12:01:55.692Z,7.57
2023-03-22T12:04:25.635Z,11.60
2023-03-22T12:06:56.538Z,7.82
2023-03-22T12:12:06.261Z,10.70
2023-03-22T12:14:52.449Z,7.75
2023-03-22T12:17:24.311Z,9.45
2023-03-22T12:19:55.734Z,11.38
2023-03-22T12:22:31.444Z,8.32
2023-03-22T12:25:00.221Z,6.25
2023-03-22T12:27:34.304Z,9.77
2023-03-22T12:30:01.545Z,8.18
2023-03-22T12:32:31.206Z,8.35
2023-03-22T12:35:14.124Z,7.45
2023-03-22T12:37:45.831Z,7.13
2023-03-22T12:40:12.967Z,8.00
2023-03-22T12:42:50.776Z,8.80
2023-03-22T12:48:51.485Z,6.82
2023-03-22T12:51:18.720Z,6.70
2023-03-22T12:53:48.043Z,7.40
2023-03-22T12:56:17.291Z,9.70
2023-03-22T12:58:47.530Z,10.32
2023-03-22T13:01:42.016Z,5.57
2023-03-22T13:04:32.042Z,7.00
2023-03-22T13:07:09.105Z,6.20
2023-03-22T13:09:52.083Z,7.00
2023-03-22T13:12:27.123Z,7.85
2023-03-22T13:14:59.365Z,7.80
2023-03-22T13:17:27.595Z,7.05
2023-03-22T13:22:50.259Z,6.40
2023-03-22T13:25:18.954Z,7.50
2023-03-22T13:32:46.187Z,9.65
2023-03-22T13:35:24.313Z,7.43
2023-03-22T13:37:52.034Z,9.98
2023-03-22T13:40:30.321Z,8.65
2023-03-22T13:43:17.395Z,12.63
2023-03-22T13:50:40.241Z,8.32
2023-03-22T13:53:14.886Z,5.68
2023-03-22T13:55:47.864Z,6.45
2023-03-22T13:58:38.202Z,7.00
2023-03-22T14:01:07.069Z,7.60
2023-03-22T14:03:36.729Z,7.35
2023-03-22T14:06:10.198Z,8.77
2023-03-22T14:08:37.902Z,9.68
2023-03-22T14:11:13.154Z,13.93
2023-03-22T14:13:44.989Z,9.90
2023-03-22T14:16:30.133Z,9.73
2023-03-22T14:18:57.559Z,12.27
2023-03-22T14:21:29.206Z,8.85
